createdAt,value
2018-07-09T00:00:00.208Z,9.5
2018-07-09T00:05:00.205Z,9.1
2018-07-09T00:10:00.276Z,9.6
2018-07-09T00:15:00.211Z,9.9
2018-07-09T00:20:00.232Z,10.6
2018-07-09T00:25:00.218Z,10.5
2018-07-09T00:30:00.285Z,12.2
2018-07-09T00:35:00.220Z,12.6
2018-07-09T00:40:00.289Z,13.3
2018-07-09T00:45:00.227Z,13.9
2018-07-09T00:50:00.260Z,13.7
2018-07-09T00:55:00.227Z,13.2
2018-07-09T01:00:00.316Z,13.7
2018-07-09T01:05:00.231Z,14.9
2018-07-09T01:10:00.305Z,14.3
2018-07-09T01:15:00.248Z,15.2
2018-07-09T01:25:00.311Z,14.9
2018-07-09T01:30:00.311Z,14.2
2018-07-09T01:35:00.246Z,15.1
2018-07-09T01:40:00.315Z,15.9
2018-07-09T01:45:00.249Z,16.4
2018-07-09T01:50:00.336Z,17.8
2018-07-09T01:55:00.261Z,18.2
2018-07-09T02:00:00.323Z,18.4
2018-07-09T02:05:00.268Z,17.9
2018-07-09T02:10:00.332Z,17.5
2018-07-09T02:15:00.266Z,17.0
2018-07-09T02:20:00.402Z,17.9
2018-07-09T02:25:00.268Z,18.3
2018-07-09T02:30:00.336Z,18.9
2018-07-09T02:35:00.274Z,18.7
2018-07-09T02:45:00.372Z,18.0
2018-07-09T02:50:00.392Z,16.9
2018-07-09T02:55:00.310Z,17.2
2018-07-09T03:00:00.383Z,18.4
2018-07-09T03:05:00.318Z,18.8
2018-07-09T03:10:00.445Z,18.6
2018-07-09T03:15:00.366Z,20.0
2018-07-09T03:20:00.430Z,19.2
2018-07-09T03:25:00.301Z,18.5
2018-07-09T03:30:00.368Z,18.9
2018-07-09T03:35:00.303Z,18.4
2018-07-09T03:40:00.375Z,18.8
2018-07-09T03:45:00.308Z,19.9
2018-07-09T03:50:00.441Z,19.6
2018-07-09T03:55:00.311Z,18.7
2018-07-09T04:00:00.378Z,18.4
2018-07-09T04:05:00.321Z,16.8
2018-07-09T04:10:00.318Z,15.9
2018-07-09T04:15:00.318Z,15.4
2018-07-09T04:20:00.458Z,14.3
2018-07-09T04:25:00.320Z,13.7
2018-07-09T04:30:00.452Z,12.3
2018-07-09T04:35:00.324Z,11.2
2018-07-09T04:40:00.391Z,10.4
2018-07-09T04:45:00.328Z,9.9
2018-07-09T04:50:00.395Z,9.3
2018-07-09T04:55:00.331Z,10.0
2018-07-09T05:00:00.465Z,9.7
2018-07-09T05:05:00.378Z,9.5
2018-07-09T05:10:00.404Z,9.6
2018-07-09T05:15:00.339Z,9.1
2018-07-09T05:20:00.407Z,8.6
2018-07-09T05:25:00.380Z,8.3
2018-07-09T05:30:00.458Z,7.8
2018-07-09T05:35:00.375Z,7.4
2018-07-09T05:40:00.507Z,7.2
2018-07-09T05:45:00.390Z,6.8
2018-07-09T05:50:00.528Z,6.6
2018-07-09T05:55:00.387Z,6.8
2018-07-09T06:00:00.453Z,6.9
2018-07-09T06:05:00.365Z,7.3
2018-07-09T06:10:00.431Z,7.4
2018-07-09T06:15:00.375Z,7.6
2018-07-09T06:20:00.418Z,9.0
2018-07-09T06:25:00.413Z,9.2
2018-07-09T06:30:00.478Z,9.0
2018-07-09T06:40:00.442Z,9.2
2018-07-09T06:45:00.379Z,7.6
2018-07-09T06:50:00.476Z,7.7
2018-07-09T06:55:00.386Z,8.2
2018-07-09T07:00:00.521Z,8.9
2018-07-09T07:05:00.387Z,8.5
2018-07-09T07:15:00.522Z,7.8
2018-07-09T07:20:00.558Z,7.2
2018-07-09T07:25:00.400Z,6.0
2018-07-09T07:30:00.526Z,5.8
2018-07-09T07:35:00.398Z,6.0
2018-07-09T07:40:00.464Z,5.9
2018-07-09T07:45:00.406Z,6.0
2018-07-09T07:50:00.499Z,5.7
2018-07-09T07:55:00.420Z,6.4
2018-07-09T08:00:00.476Z,6.2
2018-07-09T08:05:00.435Z,7.0
2018-07-09T08:15:00.545Z,7.1
2018-07-09T08:20:00.485Z,6.9
2018-07-09T08:25:00.454Z,7.1
2018-07-09T08:30:00.552Z,6.5
2018-07-09T08:35:00.427Z,6.1
2018-07-09T08:40:00.557Z,6.0
2018-07-09T08:45:00.433Z,5.4
2018-07-09T08:50:00.499Z,4.8
2018-07-09T08:55:00.430Z,4.7
2018-07-09T09:00:00.502Z,4.5
2018-07-09T09:05:00.438Z,4.4
2018-07-09T09:10:00.627Z,4.1
2018-07-09T09:15:00.438Z,4.2
2018-07-09T09:30:00.519Z,4.0
2018-07-09T09:35:00.449Z,4.3
2018-07-09T09:40:00.550Z,4.2
2018-07-09T09:45:00.492Z,4.8
2018-07-09T09:50:00.497Z,5.0
2018-07-09T09:55:00.510Z,5.8
2018-07-09T10:00:00.624Z,5.4
2018-07-09T10:05:00.487Z,5.3
2018-07-09T10:15:00.530Z,5.1
2018-07-09T10:20:00.541Z,4.3
2018-07-09T10:25:00.469Z,4.8
2018-07-09T10:30:00.539Z,4.8
2018-07-09T10:35:00.472Z,4.4
2018-07-09T10:45:00.544Z,4.8
2018-07-09T10:50:00.545Z,5.0
2018-07-09T11:00:00.639Z,5.0
2018-07-09T11:05:00.488Z,4.9
2018-07-09T11:10:00.618Z,4.8
2018-07-09T11:15:00.490Z,4.6
2018-07-09T11:20:00.556Z,4.9
2018-07-09T11:25:00.493Z,4.6
2018-07-09T11:30:00.492Z,4.7
2018-07-09T11:35:00.495Z,4.4
2018-07-09T11:40:00.648Z,4.6
2018-07-09T11:45:00.500Z,4.2
2018-07-09T11:50:00.567Z,4.3
2018-07-09T11:55:00.508Z,4.4
2018-07-09T12:00:00.574Z,4.4
2018-07-09T12:10:00.639Z,4.7
2018-07-09T12:15:00.514Z,5.1
2018-07-09T12:20:00.606Z,5.2
2018-07-09T12:25:00.521Z,5.8
2018-07-09T12:30:00.585Z,5.4
2018-07-09T12:40:00.655Z,5.6
2018-07-09T12:45:00.527Z,6.0
2018-07-09T12:50:00.660Z,5.2
2018-07-09T12:55:00.529Z,5.7
2018-07-09T13:00:00.533Z,5.8
2018-07-09T13:05:00.537Z,6.0
2018-07-09T13:10:00.708Z,5.6
2018-07-09T13:15:00.582Z,6.2
2018-07-09T13:20:00.794Z,6.4
2018-07-09T13:25:00.581Z,6.8
2018-07-09T13:30:00.650Z,6.7
2018-07-09T13:35:00.593Z,7.3
2018-07-09T13:40:00.724Z,8.0
2018-07-09T13:45:00.595Z,7.8
2018-07-09T13:50:00.661Z,7.4
2018-07-09T13:55:00.598Z,7.0
2018-07-09T14:00:00.658Z,6.4
2018-07-09T14:05:00.565Z,5.5
2018-07-09T14:15:00.573Z,5.5
2018-07-09T14:20:00.700Z,6.3
2018-07-09T14:40:06.176Z,8.8
2018-07-09T14:45:06.122Z,7.8
2018-07-09T14:50:06.230Z,8.5
2018-07-09T14:55:01.100Z,7.5
2018-07-09T15:00:01.107Z,7.5
2018-07-09T15:10:01.250Z,7.6
2018-07-09T15:15:01.095Z,7.1
2018-07-09T15:20:01.119Z,7.4
2018-07-09T15:25:06.107Z,7.0
2018-07-09T15:30:06.243Z,6.2
2018-07-09T15:35:01.143Z,5.6
2018-07-09T15:40:01.283Z,5.2
2018-07-09T15:45:01.136Z,5.8
2018-07-09T15:50:01.247Z,6.0
2018-07-09T15:55:01.120Z,6.4
2018-07-09T16:00:01.285Z,6.6
2018-07-09T16:05:06.100Z,6.5
2018-07-09T16:10:01.164Z,6.0
2018-07-09T16:15:06.101Z,5.6
2018-07-09T16:20:01.290Z,5.7
2018-07-09T16:25:01.088Z,6.0
2018-07-09T16:30:01.093Z,6.2
2018-07-09T16:35:06.103Z,5.8
2018-07-09T16:40:06.231Z,6.0
2018-07-09T16:45:06.100Z,5.5
2018-07-09T16:50:01.196Z,5.4
2018-07-09T16:55:06.106Z,5.5
2018-07-09T17:00:01.158Z,5.7
2018-07-09T17:05:01.095Z,6.0
2018-07-09T17:10:01.228Z,6.6
2018-07-09T17:15:01.098Z,7.1
2018-07-09T17:30:01.169Z,7.0
2018-07-09T17:40:01.218Z,6.6
2018-07-09T17:45:01.097Z,6.7
2018-07-09T17:50:01.287Z,6.5
2018-07-09T17:55:01.105Z,6.8
2018-07-09T18:00:01.166Z,6.6
2018-07-09T18:05:01.099Z,6.3
2018-07-09T18:10:01.245Z,6.6
2018-07-09T18:15:01.107Z,7.1
2018-07-09T18:20:01.217Z,6.9
2018-07-09T18:25:01.093Z,7.8
2018-07-09T18:30:01.164Z,8.3
2018-07-09T18:35:01.123Z,8.4
2018-07-09T18:40:01.150Z,7.9
2018-07-09T18:45:06.108Z,7.8
2018-07-09T18:50:01.270Z,7.3
2018-07-09T18:55:06.110Z,7.0
2018-07-09T19:00:06.252Z,6.8
2018-07-09T19:05:01.090Z,7.2
2018-07-09T19:20:00.336Z,9.4
2018-07-09T19:40:00.596Z,6.0
2018-07-09T20:00:00.723Z,5.4
2018-07-09T20:20:00.985Z,9.0
2018-07-09T20:40:01.309Z,7.4
2018-07-09T20:50:01.018Z,6.8
2018-07-09T21:10:00.503Z,5.6
2018-07-09T21:30:00.778Z,4.0
2018-07-09T21:50:00.949Z,7.8
2018-07-09T22:10:01.072Z,6.0
2018-07-09T22:30:00.400Z,7.2
2018-07-09T22:50:00.556Z,8.8
2018-07-09T22:55:00.480Z,8.4
2018-07-09T23:10:00.781Z,8.8
2018-07-09T23:30:00.974Z,7.8
2018-07-09T23:50:06.185Z,8.0
